Disclaimer

Please do not use the information listed here in-flight or in-navigation, as they are not provided to us by the airports but are provided by volunteers, so they might be outdated.

Search


Regions


Airport information page

Radio informations:
GELABERT TWR - 118.3 MHz
VFR ADVSY SVC - 121.2 MHz
Ground (GND) - 121.7 MHz

Airport informations:
Latitude: 08° 58' 24.02" N
Longitude: 079° 33' 20.10" W
Elevation: 31 feet - 9 meters
Operating hours: Remarks
Operating agency: Civil government, landing fees and diplomatic clearance may be required
Timezone: UTC-5
Fuel: Unknown fuel type or whether there is any fuel.

Runway information:
18/36 - 5906 x 98 feet< - >1800 x 30 meters

Recent METARs:
MPMG 162300Z 31009KT 9999 FEW016CB 28/25 Q1007 NOSIG
MPMG 170000Z 33007KT 9999 FEW016CB 27/25 Q1008 NOSIG
MPMG 170000Z 33007KT 9999 FEW016CB 27/25 Q1008 NOSIG

Airport on the map: